createdAt,value
2022-09-15T00:00:33.827Z,14.49
2022-09-15T00:01:33.855Z,14.45
2022-09-15T00:02:33.936Z,14.30
2022-09-15T00:03:33.791Z,14.20
2022-09-15T00:04:33.776Z,14.21
2022-09-15T00:05:33.798Z,14.24
2022-09-15T00:06:33.775Z,14.20
2022-09-15T00:07:33.814Z,14.08
2022-09-15T00:08:33.744Z,14.12
2022-09-15T00:09:33.752Z,13.88
2022-09-15T00:10:33.773Z,13.75
2022-09-15T00:11:33.816Z,13.73
2022-09-15T00:12:33.753Z,13.81
2022-09-15T00:13:33.735Z,13.72
2022-09-15T00:14:33.763Z,13.76
2022-09-15T00:15:33.706Z,13.81
2022-09-15T00:16:33.801Z,13.73
2022-09-15T00:17:33.665Z,13.83
2022-09-15T00:18:33.684Z,14.04
2022-09-15T00:19:33.662Z,14.05
2022-09-15T00:20:33.665Z,14.08
2022-09-15T00:21:33.691Z,14.11
2022-09-15T00:22:33.662Z,13.99
2022-09-15T00:23:33.637Z,14.05
2022-09-15T00:24:33.628Z,14.11
2022-09-15T00:25:33.601Z,14.20
2022-09-15T00:26:33.594Z,14.13
2022-09-15T00:27:33.593Z,14.30
2022-09-15T00:28:33.605Z,14.13
2022-09-15T00:29:33.598Z,14.12
2022-09-15T00:30:33.600Z,14.11
2022-09-15T00:31:33.559Z,14.08
2022-09-15T00:32:33.596Z,13.94
2022-09-15T00:33:33.572Z,14.08
2022-09-15T00:34:33.595Z,14.17
2022-09-15T00:35:33.559Z,14.19
2022-09-15T00:36:33.537Z,14.21
2022-09-15T00:37:33.531Z,14.38
2022-09-15T00:38:33.555Z,14.42
2022-09-15T00:39:33.494Z,14.46
2022-09-15T00:40:33.593Z,14.53
2022-09-15T00:41:33.489Z,14.56
2022-09-15T00:42:33.491Z,14.48
2022-09-15T00:43:33.473Z,14.53
2022-09-15T00:44:33.537Z,14.61
2022-09-15T00:45:33.552Z,14.52
2022-09-15T00:46:33.499Z,14.20
2022-09-15T00:47:33.425Z,14.17
2022-09-15T00:48:33.435Z,14.04
2022-09-15T00:49:33.427Z,13.81
2022-09-15T00:50:33.434Z,13.84
2022-09-15T00:51:33.455Z,13.87
2022-09-15T00:52:33.399Z,13.81
2022-09-15T00:53:33.391Z,13.76
2022-09-15T00:54:33.399Z,13.69
2022-09-15T00:55:33.391Z,13.68
2022-09-15T00:56:33.366Z,13.71
2022-09-15T00:57:33.512Z,13.65
2022-09-15T00:58:33.359Z,13.61
2022-09-15T00:59:33.357Z,13.66
2022-09-15T01:00:33.333Z,13.76
2022-09-15T01:01:33.380Z,13.68
2022-09-15T01:02:33.484Z,13.87
2022-09-15T01:03:33.328Z,13.93
2022-09-15T01:04:33.314Z,13.94
2022-09-15T01:05:33.293Z,13.93
2022-09-15T01:06:33.315Z,13.98
2022-09-15T01:07:33.361Z,13.86
2022-09-15T01:08:33.264Z,13.94
2022-09-15T01:09:33.301Z,13.87
2022-09-15T01:10:33.414Z,13.81
2022-09-15T01:11:33.266Z,13.84
2022-09-15T01:12:33.258Z,13.71
2022-09-15T01:13:33.262Z,13.68
2022-09-15T01:14:33.216Z,13.55
2022-09-15T01:15:33.305Z,13.59
2022-09-15T01:16:33.277Z,13.71
2022-09-15T01:17:33.198Z,13.75
2022-09-15T01:18:33.214Z,13.65
2022-09-15T01:19:33.219Z,13.55
2022-09-15T01:20:33.205Z,13.48
2022-09-15T01:21:33.166Z,13.50
2022-09-15T01:22:33.161Z,13.41
2022-09-15T01:23:33.181Z,13.55
2022-09-15T01:24:33.141Z,13.55
2022-09-15T01:25:33.152Z,13.66
2022-09-15T01:26:33.153Z,13.59
2022-09-15T01:27:44.650Z,13.72
2022-09-15T01:28:35.123Z,13.83
2022-09-15T01:29:33.095Z,13.86
2022-09-15T01:30:33.087Z,13.94
2022-09-15T01:31:33.192Z,13.86
2022-09-15T01:32:33.072Z,13.83
2022-09-15T01:33:33.113Z,13.80
2022-09-15T01:34:33.065Z,13.81
2022-09-15T01:35:33.055Z,13.87
2022-09-15T01:36:33.044Z,13.81
2022-09-15T01:37:33.020Z,13.94
2022-09-15T01:38:33.124Z,14.08
2022-09-15T01:39:33.132Z,14.04
2022-09-15T01:40:33.098Z,14.04
2022-09-15T01:41:33.008Z,14.09
2022-09-15T01:42:33.010Z,14.11
2022-09-15T01:43:33.009Z,14.06
2022-09-15T01:44:33.013Z,14.11
2022-09-15T01:45:33.061Z,13.94
2022-09-15T01:46:32.971Z,13.79
2022-09-15T01:47:32.967Z,13.98
2022-09-15T01:48:32.968Z,13.90
2022-09-15T01:49:32.980Z,13.86
2022-09-15T01:50:32.953Z,13.75
2022-09-15T01:51:32.954Z,13.79
2022-09-15T01:52:32.959Z,13.83
2022-09-15T01:53:32.934Z,13.94
2022-09-15T01:54:32.939Z,13.96
2022-09-15T01:55:32.895Z,13.87
2022-09-15T01:56:32.898Z,13.86
2022-09-15T01:57:32.916Z,13.83
2022-09-15T01:58:32.884Z,13.87
2022-09-15T01:59:32.896Z,13.99
2022-09-15T02:00:32.860Z,13.96
2022-09-15T02:01:32.968Z,14.02
2022-09-15T02:02:32.923Z,14.08
2022-09-15T02:03:32.857Z,13.88
2022-09-15T02:04:32.842Z,13.94
2022-09-15T02:05:32.832Z,14.06
2022-09-15T02:06:32.848Z,14.09
2022-09-15T02:07:32.811Z,14.16
2022-09-15T02:08:32.841Z,14.02
2022-09-15T02:09:32.834Z,14.02
2022-09-15T02:10:32.791Z,14.09
2022-09-15T02:11:32.774Z,14.06
2022-09-15T02:12:32.766Z,14.05
2022-09-15T02:13:32.784Z,13.98
2022-09-15T02:14:35.277Z,13.88
2022-09-15T02:15:34.599Z,13.88
2022-09-15T02:16:34.786Z,13.81
2022-09-15T02:17:34.939Z,13.76
2022-09-15T02:18:33.614Z,13.87
2022-09-15T02:19:33.788Z,13.91
2022-09-15T02:20:34.460Z,14.11
2022-09-15T02:21:36.991Z,14.11
2022-09-15T02:22:34.704Z,14.16
2022-09-15T02:23:35.771Z,13.99
2022-09-15T02:24:33.327Z,13.98
2022-09-15T02:25:35.455Z,13.84
2022-09-15T02:26:33.477Z,13.81
2022-09-15T02:27:34.133Z,13.84
2022-09-15T02:28:35.991Z,13.98
2022-09-15T02:29:33.846Z,14.06
2022-09-15T02:30:36.724Z,14.06
2022-09-15T02:31:33.317Z,14.16
2022-09-15T02:32:33.559Z,14.30
2022-09-15T02:33:34.322Z,14.45
2022-09-15T02:34:34.263Z,14.42
2022-09-15T02:35:33.566Z,14.56
2022-09-15T02:36:34.112Z,14.56
2022-09-15T02:37:36.362Z,14.52
2022-09-15T02:38:33.349Z,14.49
2022-09-15T02:39:33.985Z,14.52
2022-09-15T02:40:33.716Z,14.59
2022-09-15T02:41:33.825Z,14.64
2022-09-15T02:42:33.741Z,14.67
2022-09-15T02:43:34.380Z,14.67
2022-09-15T02:44:34.631Z,14.79
2022-09-15T02:45:36.655Z,14.75
2022-09-15T02:46:33.438Z,14.82
2022-09-15T02:47:33.601Z,14.75
2022-09-15T02:48:33.231Z,14.67
2022-09-15T02:49:36.074Z,14.78
2022-09-15T02:50:35.254Z,14.66
2022-09-15T02:51:35.107Z,14.57
2022-09-15T02:52:34.163Z,14.26
2022-09-15T02:53:39.558Z,14.16
2022-09-15T02:54:35.356Z,14.11
2022-09-15T02:55:34.138Z,14.05
2022-09-15T02:56:33.243Z,14.04
2022-09-15T02:57:32.969Z,13.87
2022-09-15T02:58:33.864Z,13.80
2022-09-15T02:59:34.878Z,13.69
2022-09-15T03:00:33.759Z,13.76
2022-09-15T03:01:39.671Z,13.81
2022-09-15T03:02:35.224Z,13.86
2022-09-15T03:03:33.690Z,13.91
2022-09-15T03:04:34.645Z,14.02
2022-09-15T03:05:37.220Z,14.17
2022-09-15T03:06:35.574Z,14.06
2022-09-15T03:07:34.969Z,14.11
2022-09-15T03:08:33.426Z,14.20
2022-09-15T03:09:34.828Z,14.29
2022-09-15T03:10:36.091Z,14.27
2022-09-15T03:11:36.696Z,14.27
2022-09-15T03:12:33.671Z,14.19
2022-09-15T03:13:37.586Z,14.17
2022-09-15T03:14:34.593Z,14.05
2022-09-15T03:15:33.706Z,14.02
2022-09-15T03:16:36.054Z,13.93
2022-09-15T03:17:33.908Z,13.87
2022-09-15T03:18:41.202Z,13.84
2022-09-15T03:19:35.615Z,13.83
2022-09-15T03:20:32.219Z,13.73
2022-09-15T03:21:32.255Z,13.66
2022-09-15T03:22:32.269Z,13.65
2022-09-15T03:23:32.198Z,13.57
2022-09-15T03:24:32.205Z,13.57
2022-09-15T03:25:32.194Z,13.59
2022-09-15T03:26:32.238Z,13.55
2022-09-15T03:27:32.207Z,13.61
2022-09-15T03:28:32.166Z,13.47
2022-09-15T03:29:32.182Z,13.57
2022-09-15T03:30:32.174Z,13.55
2022-09-15T03:31:32.203Z,13.62
2022-09-15T03:32:32.187Z,13.57
2022-09-15T03:33:32.161Z,13.62
2022-09-15T03:34:32.122Z,13.44
2022-09-15T03:35:32.120Z,13.55
2022-09-15T03:36:32.143Z,13.47
2022-09-15T03:37:32.109Z,13.46
2022-09-15T03:38:32.093Z,13.46
2022-09-15T03:39:32.120Z,13.54
2022-09-15T03:40:32.192Z,13.39
2022-09-15T03:41:32.106Z,13.59
2022-09-15T03:42:32.065Z,13.41
2022-09-15T03:43:32.058Z,13.50
2022-09-15T03:44:32.094Z,13.44
2022-09-15T03:45:32.080Z,13.32
2022-09-15T03:46:32.030Z,13.46
2022-09-15T03:47:32.039Z,13.44
2022-09-15T03:48:32.014Z,13.44
2022-09-15T03:49:32.047Z,13.41
2022-09-15T03:50:32.021Z,13.43
2022-09-15T03:51:31.991Z,13.43
2022-09-15T03:52:32.035Z,13.43
2022-09-15T03:53:31.976Z,13.28
2022-09-15T03:54:31.984Z,13.25
2022-09-15T03:55:31.995Z,13.35
2022-09-15T03:56:31.969Z,13.19
2022-09-15T03:57:31.942Z,13.25
2022-09-15T03:58:31.945Z,13.14
2022-09-15T03:59:31.956Z,13.09
2022-09-15T04:00:31.951Z,13.12
2022-09-15T04:01:31.988Z,13.14
2022-09-15T04:02:31.902Z,13.14
2022-09-15T04:03:31.934Z,13.21
2022-09-15T04:04:31.916Z,13.29
2022-09-15T04:05:31.908Z,13.27
2022-09-15T04:06:31.915Z,13.27
2022-09-15T04:07:31.874Z,13.21
2022-09-15T04:08:31.871Z,13.25
2022-09-15T04:09:31.861Z,13.39
2022-09-15T04:10:31.884Z,13.47
2022-09-15T04:11:31.855Z,13.59
2022-09-15T04:12:31.855Z,13.66
2022-09-15T04:13:31.870Z,13.80
2022-09-15T04:14:31.842Z,13.84
2022-09-15T04:15:31.809Z,14.05
2022-09-15T04:16:31.890Z,13.99
2022-09-15T04:17:31.829Z,14.13
2022-09-15T04:18:31.776Z,14.27
2022-09-15T04:19:31.823Z,14.17
2022-09-15T04:20:31.792Z,14.27
2022-09-15T04:21:31.771Z,14.42
2022-09-15T04:22:32.787Z,14.39
2022-09-15T04:23:31.756Z,14.46
2022-09-15T04:24:31.751Z,14.56
2022-09-15T04:25:31.728Z,14.61
2022-09-15T04:26:31.710Z,14.64
2022-09-15T04:27:31.739Z,14.60
2022-09-15T04:28:31.721Z,14.71
2022-09-15T04:29:31.709Z,14.69
2022-09-15T04:30:31.689Z,14.80
2022-09-15T04:31:32.696Z,14.78
2022-09-15T04:32:31.729Z,14.86
2022-09-15T04:33:31.662Z,14.85
2022-09-15T04:34:31.666Z,14.71
2022-09-15T04:35:31.695Z,14.54
2022-09-15T04:36:31.644Z,14.49
2022-09-15T04:37:31.667Z,14.42
2022-09-15T04:38:31.651Z,14.48
2022-09-15T04:39:31.710Z,14.48
2022-09-15T04:40:31.649Z,14.53
2022-09-15T04:41:31.614Z,14.48
2022-09-15T04:42:31.650Z,14.59
2022-09-15T04:43:31.587Z,14.67
2022-09-15T04:44:31.591Z,14.66
2022-09-15T04:45:31.616Z,14.79
2022-09-15T04:46:31.717Z,14.78
2022-09-15T04:47:31.620Z,14.80
2022-09-15T04:48:31.565Z,14.80
2022-09-15T04:49:31.547Z,14.80
2022-09-15T04:50:32.518Z,14.85
2022-09-15T04:51:31.633Z,14.78
2022-09-15T04:52:31.500Z,14.83
2022-09-15T04:53:31.505Z,14.86
2022-09-15T04:54:31.514Z,14.86
2022-09-15T04:55:31.544Z,14.83
2022-09-15T04:56:31.494Z,14.93
2022-09-15T04:57:31.477Z,14.90
2022-09-15T04:58:31.472Z,14.74
2022-09-15T04:59:31.458Z,14.60
2022-09-15T05:00:31.504Z,14.30
2022-09-15T05:01:31.479Z,14.13
2022-09-15T05:02:31.548Z,14.16
2022-09-15T05:03:31.429Z,14.19
2022-09-15T05:04:31.416Z,14.19
2022-09-15T05:05:31.453Z,14.21
2022-09-15T05:06:31.417Z,14.20
2022-09-15T05:07:31.377Z,14.01
2022-09-15T05:08:31.386Z,13.93
2022-09-15T05:09:31.404Z,13.87
2022-09-15T05:10:31.371Z,13.81
2022-09-15T05:11:31.379Z,13.80
2022-09-15T05:12:31.392Z,13.79
2022-09-15T05:13:31.343Z,13.66
2022-09-15T05:14:31.355Z,13.68
2022-09-15T05:15:31.366Z,13.66
2022-09-15T05:16:31.407Z,13.65
2022-09-15T05:17:31.335Z,13.54
2022-09-15T05:18:31.321Z,13.51
2022-09-15T05:19:31.334Z,13.66
2022-09-15T05:20:31.309Z,13.81
2022-09-15T05:21:31.290Z,13.87
2022-09-15T05:22:31.405Z,13.98
2022-09-15T05:23:31.265Z,14.17
2022-09-15T05:24:31.294Z,14.09
2022-09-15T05:25:31.287Z,14.26
2022-09-15T05:26:31.237Z,14.24
2022-09-15T05:27:31.298Z,14.26
2022-09-15T05:28:31.262Z,14.21
2022-09-15T05:29:31.235Z,14.13
2022-09-15T05:30:42.462Z,14.20
2022-09-15T05:31:33.324Z,13.98
2022-09-15T05:32:31.212Z,13.90
2022-09-15T05:33:31.197Z,13.66
2022-09-15T05:34:31.173Z,13.54
2022-09-15T05:35:31.219Z,13.55
2022-09-15T05:36:31.186Z,13.57
2022-09-15T05:37:31.177Z,13.47
2022-09-15T05:38:31.158Z,13.31
2022-09-15T05:39:31.180Z,13.39
2022-09-15T05:40:31.165Z,13.39
2022-09-15T05:41:31.136Z,13.55
2022-09-15T05:42:31.130Z,13.47
2022-09-15T05:43:31.110Z,13.48
2022-09-15T05:44:31.135Z,13.31
2022-09-15T05:45:31.117Z,13.41
2022-09-15T05:46:31.146Z,13.51
2022-09-15T05:47:31.113Z,13.71
2022-09-15T05:48:31.079Z,13.83
2022-09-15T05:49:31.101Z,13.94
2022-09-15T05:50:31.075Z,13.90
2022-09-15T05:51:31.099Z,13.72
2022-09-15T05:52:31.044Z,13.62
2022-09-15T05:53:31.057Z,13.55
2022-09-15T05:54:31.046Z,13.48
2022-09-15T05:55:31.025Z,13.43
2022-09-15T05:56:31.036Z,13.68
2022-09-15T05:57:31.034Z,13.80
2022-09-15T05:58:30.988Z,13.79
2022-09-15T05:59:30.979Z,13.84
2022-09-15T06:00:31.002Z,13.81
2022-09-15T06:01:31.030Z,13.81
2022-09-15T06:02:31.016Z,13.84
2022-09-15T06:03:31.263Z,14.02
2022-09-15T06:04:31.949Z,14.12
2022-09-15T06:05:30.930Z,14.21
2022-09-15T06:06:30.935Z,14.29
2022-09-15T06:07:30.962Z,14.39
2022-09-15T06:08:30.924Z,14.52
2022-09-15T06:09:30.934Z,14.56
2022-09-15T06:10:30.874Z,14.74
2022-09-15T06:11:30.984Z,14.75
2022-09-15T06:12:31.006Z,14.80
2022-09-15T06:13:30.940Z,14.93
2022-09-15T06:14:30.955Z,15.01
2022-09-15T06:15:30.925Z,14.98
2022-09-15T06:16:31.045Z,15.03
2022-09-15T06:17:31.021Z,15.05
2022-09-15T06:18:30.901Z,15.13
2022-09-15T06:19:30.993Z,15.07
2022-09-15T06:20:30.898Z,15.05
2022-09-15T06:21:30.794Z,15.05
2022-09-15T06:22:30.938Z,15.00
2022-09-15T06:23:30.811Z,14.87
2022-09-15T06:24:30.847Z,14.86
2022-09-15T06:25:30.798Z,14.86
2022-09-15T06:26:30.759Z,14.83
2022-09-15T06:27:30.748Z,14.90
2022-09-15T06:28:30.897Z,14.71
2022-09-15T06:29:30.765Z,14.57
2022-09-15T06:30:30.726Z,14.36
2022-09-15T06:31:30.830Z,14.38
2022-09-15T06:32:30.777Z,14.42
2022-09-15T06:33:31.787Z,14.45
2022-09-15T06:34:30.730Z,14.48
2022-09-15T06:35:30.749Z,14.46
2022-09-15T06:36:30.700Z,14.41
2022-09-15T06:37:30.685Z,14.52
2022-09-15T06:38:30.672Z,14.56
2022-09-15T06:39:30.666Z,14.60
2022-09-15T06:40:30.774Z,14.56
2022-09-15T06:41:47.148Z,14.64
2022-09-15T06:42:32.667Z,14.54
2022-09-15T06:43:30.652Z,14.35
2022-09-15T06:44:30.619Z,14.11
2022-09-15T06:45:30.655Z,14.05
2022-09-15T06:46:30.694Z,13.99
2022-09-15T06:47:30.594Z,13.66
2022-09-15T06:48:30.683Z,13.76
2022-09-15T06:49:30.591Z,13.84
2022-09-15T06:50:30.643Z,14.02
2022-09-15T06:51:30.595Z,14.13
2022-09-15T06:52:30.692Z,14.13
2022-09-15T06:53:30.552Z,14.13
2022-09-15T06:54:30.608Z,14.08
2022-09-15T06:55:30.548Z,14.08
2022-09-15T06:56:34.488Z,14.20
2022-09-15T06:57:31.578Z,14.31
2022-09-15T06:58:30.515Z,14.46
2022-09-15T06:59:30.546Z,14.69
2022-09-15T07:00:30.485Z,14.64
2022-09-15T07:01:30.550Z,14.64
2022-09-15T07:02:30.637Z,14.82
2022-09-15T07:03:30.586Z,14.87
2022-09-15T07:04:30.545Z,15.01
2022-09-15T07:05:30.445Z,15.05
2022-09-15T07:06:30.466Z,15.20
2022-09-15T07:07:30.504Z,15.40
2022-09-15T07:08:30.462Z,15.46
2022-09-15T07:09:30.419Z,15.55
2022-09-15T07:10:30.471Z,15.58
2022-09-15T07:11:30.415Z,15.37
2022-09-15T07:12:30.502Z,15.30
2022-09-15T07:13:30.441Z,15.46
2022-09-15T07:14:30.405Z,15.55
2022-09-15T07:15:30.389Z,15.59
2022-09-15T07:16:30.473Z,15.71
2022-09-15T07:17:30.426Z,15.88
2022-09-15T07:18:30.381Z,15.93
2022-09-15T07:19:30.430Z,15.99
2022-09-15T07:20:30.374Z,16.08
2022-09-15T07:21:30.344Z,16.25
2022-09-15T07:22:30.373Z,16.29
2022-09-15T07:23:30.339Z,16.41
2022-09-15T07:24:30.326Z,16.45
2022-09-15T07:25:30.313Z,16.63
2022-09-15T07:26:30.297Z,16.75
2022-09-15T07:27:30.313Z,16.84
2022-09-15T07:28:30.295Z,16.82
2022-09-15T07:29:30.291Z,17.00
2022-09-15T07:30:30.271Z,17.03
2022-09-15T07:31:30.335Z,17.22
2022-09-15T07:32:30.317Z,17.18
2022-09-15T07:33:30.242Z,17.38
2022-09-15T07:34:30.266Z,17.42
2022-09-15T07:35:30.268Z,17.57
2022-09-15T07:36:30.333Z,17.53
2022-09-15T07:37:30.263Z,17.45
2022-09-15T07:38:30.208Z,17.24
2022-09-15T07:39:30.237Z,17.22
2022-09-15T07:40:30.257Z,17.00
2022-09-15T07:41:30.212Z,17.07
2022-09-15T07:42:35.200Z,17.03
2022-09-15T07:43:32.179Z,16.92
2022-09-15T07:44:30.186Z,16.90
2022-09-15T07:45:30.205Z,16.90
2022-09-15T07:46:30.163Z,16.85
2022-09-15T07:47:30.173Z,16.96
2022-09-15T07:48:30.129Z,16.96
2022-09-15T07:49:30.151Z,16.98
2022-09-15T07:50:30.269Z,16.91
2022-09-15T07:51:30.173Z,16.96
2022-09-15T07:52:30.122Z,17.02
2022-09-15T07:53:30.159Z,16.95
2022-09-15T07:54:30.176Z,16.81
2022-09-15T07:55:30.089Z,16.69
2022-09-15T07:56:30.091Z,16.57
2022-09-15T07:57:30.076Z,16.63
2022-09-15T07:58:30.104Z,16.67
2022-09-15T07:59:30.073Z,16.66
2022-09-15T08:00:30.102Z,16.72
2022-09-15T08:01:30.117Z,16.67
2022-09-15T08:02:30.149Z,16.60
2022-09-15T08:03:30.060Z,16.69
2022-09-15T08:04:30.029Z,16.75
2022-09-15T08:05:30.012Z,16.80
2022-09-15T08:06:30.070Z,16.91
2022-09-15T08:07:30.029Z,16.99
2022-09-15T08:08:30.015Z,17.03
2022-09-15T08:09:30.080Z,17.05
2022-09-15T08:10:29.999Z,17.06
2022-09-15T08:11:30.139Z,17.12
2022-09-15T08:12:29.989Z,17.15
2022-09-15T08:13:29.959Z,17.25
2022-09-15T08:14:29.966Z,17.27
2022-09-15T08:15:29.949Z,17.38
2022-09-15T08:16:30.023Z,17.45
2022-09-15T08:17:29.940Z,17.42
2022-09-15T08:18:29.918Z,17.51
2022-09-15T08:19:29.925Z,17.39
2022-09-15T08:20:29.912Z,17.46
2022-09-15T08:21:29.960Z,17.46
2022-09-15T08:22:29.897Z,17.55
2022-09-15T08:23:29.884Z,17.46
2022-09-15T08:24:29.961Z,17.39
2022-09-15T08:25:29.900Z,17.21
2022-09-15T08:26:29.926Z,17.12
2022-09-15T08:27:29.883Z,16.50
2022-09-15T08:28:29.889Z,16.13
2022-09-15T08:29:29.869Z,15.91
2022-09-15T08:30:29.841Z,15.84
2022-09-15T08:31:30.044Z,15.88
2022-09-15T08:32:30.995Z,15.84
2022-09-15T08:33:29.927Z,15.85
2022-09-15T08:34:29.832Z,15.88
2022-09-15T08:35:29.823Z,15.86
2022-09-15T08:36:29.864Z,15.93
2022-09-15T08:37:29.829Z,15.85
2022-09-15T08:38:29.822Z,16.13
2022-09-15T08:39:29.802Z,16.51
2022-09-15T08:40:29.880Z,16.77
2022-09-15T08:41:29.798Z,16.95
2022-09-15T08:42:29.780Z,17.35
2022-09-15T08:43:30.788Z,17.63
2022-09-15T08:44:29.744Z,17.68
2022-09-15T08:45:29.828Z,17.46
2022-09-15T08:46:29.851Z,17.36
2022-09-15T08:47:29.731Z,17.42
2022-09-15T08:48:29.764Z,17.51
2022-09-15T08:49:49.918Z,17.58
2022-09-15T08:50:31.735Z,17.83
2022-09-15T08:51:29.696Z,18.11
2022-09-15T08:52:29.702Z,18.23
2022-09-15T08:53:29.697Z,18.50
2022-09-15T08:54:29.735Z,18.68
2022-09-15T08:55:29.676Z,18.57
2022-09-15T08:56:29.685Z,18.47
2022-09-15T08:57:29.673Z,18.50
2022-09-15T08:58:29.676Z,18.02
2022-09-15T08:59:29.735Z,17.83
2022-09-15T09:00:29.772Z,17.89
2022-09-15T09:01:29.739Z,18.09
2022-09-15T09:02:29.737Z,18.21
2022-09-15T09:03:29.631Z,18.36
2022-09-15T09:04:29.614Z,18.53
2022-09-15T09:05:29.666Z,18.60
2022-09-15T09:06:29.664Z,18.50
2022-09-15T09:07:29.621Z,18.29
2022-09-15T09:08:29.593Z,18.19
2022-09-15T09:09:29.588Z,18.10
2022-09-15T09:10:29.595Z,18.11
2022-09-15T09:11:29.613Z,18.11
2022-09-15T09:12:29.593Z,17.96
2022-09-15T09:13:34.680Z,17.94
2022-09-15T09:14:31.581Z,17.87
2022-09-15T09:15:29.595Z,17.96
2022-09-15T09:16:29.588Z,17.96
2022-09-15T09:17:29.594Z,18.04
2022-09-15T09:18:29.534Z,18.05
2022-09-15T09:19:32.171Z,18.01
2022-09-15T09:20:30.581Z,18.05
2022-09-15T09:21:29.548Z,18.14
2022-09-15T09:22:29.553Z,18.26
2022-09-15T09:23:29.511Z,18.13
2022-09-15T09:24:29.548Z,18.14
2022-09-15T09:25:29.496Z,18.20
2022-09-15T09:26:29.538Z,18.20
2022-09-15T09:27:29.546Z,18.14
2022-09-15T09:28:29.490Z,18.01
2022-09-15T09:29:29.535Z,17.95
2022-09-15T09:30:29.490Z,17.84
2022-09-15T09:31:29.508Z,17.81
2022-09-15T09:32:29.459Z,17.70
2022-09-15T09:33:29.523Z,17.58
2022-09-15T09:34:29.475Z,17.60
2022-09-15T09:35:29.452Z,17.46
2022-09-15T09:36:29.446Z,17.40
2022-09-15T09:37:29.441Z,17.21
2022-09-15T09:38:29.449Z,17.18
2022-09-15T09:39:29.407Z,17.28
2022-09-15T09:40:29.462Z,17.27
2022-09-15T09:41:29.411Z,17.03
2022-09-15T09:42:29.462Z,16.96
2022-09-15T09:43:29.457Z,17.05
2022-09-15T09:44:29.366Z,17.12
2022-09-15T09:45:29.374Z,17.14
2022-09-15T09:46:29.407Z,17.12
2022-09-15T09:47:29.374Z,17.24
2022-09-15T09:48:29.366Z,17.39
2022-09-15T09:49:29.425Z,17.39
2022-09-15T09:50:29.359Z,17.40
2022-09-15T09:51:29.321Z,17.17
2022-09-15T09:52:29.335Z,17.20
2022-09-15T09:53:29.298Z,17.10
2022-09-15T09:54:29.333Z,17.18
2022-09-15T09:55:29.294Z,17.12
2022-09-15T09:56:29.305Z,17.09
2022-09-15T09:57:29.344Z,17.05
2022-09-15T09:58:29.303Z,17.15
2022-09-15T09:59:29.298Z,17.30
2022-09-15T10:00:29.253Z,17.14
2022-09-15T10:01:29.324Z,17.25
2022-09-15T10:02:29.277Z,17.25
2022-09-15T10:03:32.846Z,17.12
2022-09-15T10:04:30.351Z,17.21
2022-09-15T10:05:29.297Z,17.10
2022-09-15T10:06:29.229Z,17.12
2022-09-15T10:07:29.220Z,17.06
2022-09-15T10:08:29.208Z,16.85
2022-09-15T10:09:33.289Z,16.82
2022-09-15T10:10:30.361Z,16.87
2022-09-15T10:11:29.191Z,16.80
2022-09-15T10:12:29.194Z,16.77
2022-09-15T10:13:29.186Z,16.91
2022-09-15T10:14:29.175Z,16.84
2022-09-15T10:15:29.185Z,16.84
2022-09-15T10:16:29.177Z,16.78
2022-09-15T10:17:29.134Z,16.91
2022-09-15T10:18:29.165Z,16.85
2022-09-15T10:19:29.229Z,16.90
2022-09-15T10:20:29.161Z,16.84
2022-09-15T10:21:29.145Z,16.98
2022-09-15T10:22:29.115Z,16.95
2022-09-15T10:23:29.139Z,16.95
2022-09-15T10:24:29.139Z,16.81
2022-09-15T10:25:44.271Z,16.88
2022-09-15T10:26:31.145Z,16.95
2022-09-15T10:27:29.090Z,17.10
2022-09-15T10:28:29.093Z,17.07
2022-09-15T10:29:29.072Z,17.05
2022-09-15T10:30:29.103Z,17.12
2022-09-15T10:31:29.168Z,17.07
2022-09-15T10:32:29.077Z,17.15
2022-09-15T10:33:29.048Z,17.17
2022-09-15T10:34:29.033Z,17.06
2022-09-15T10:35:29.061Z,17.02
2022-09-15T10:36:29.051Z,17.10
2022-09-15T10:37:29.126Z,17.02
2022-09-15T10:38:29.016Z,17.00
2022-09-15T10:39:29.032Z,16.90
2022-09-15T10:40:29.022Z,16.87
2022-09-15T10:41:29.004Z,16.84
2022-09-15T10:42:29.039Z,16.70
2022-09-15T10:43:29.035Z,16.80
2022-09-15T10:44:29.156Z,16.87
2022-09-15T10:45:29.162Z,16.95
2022-09-15T10:46:28.996Z,16.92
2022-09-15T10:47:28.972Z,17.02
2022-09-15T10:48:28.935Z,17.00
2022-09-15T10:49:28.951Z,17.15
2022-09-15T10:50:28.923Z,17.00
2022-09-15T10:51:28.993Z,17.02
2022-09-15T10:52:28.993Z,17.02
2022-09-15T10:53:29.028Z,17.10
2022-09-15T10:54:28.943Z,17.24
2022-09-15T10:55:51.106Z,17.18
2022-09-15T10:56:30.884Z,17.17
2022-09-15T10:57:28.945Z,17.10
2022-09-15T10:58:29.020Z,17.17
2022-09-15T10:59:28.929Z,17.12
2022-09-15T11:00:28.967Z,17.00
2022-09-15T11:01:28.856Z,17.12
2022-09-15T11:02:28.955Z,17.15
2022-09-15T11:03:28.876Z,17.25
2022-09-15T11:04:28.844Z,17.17
2022-09-15T11:05:28.857Z,17.15
2022-09-15T11:06:28.855Z,17.21
2022-09-15T11:07:28.824Z,17.17
2022-09-15T11:08:28.837Z,17.33
2022-09-15T11:09:28.800Z,17.40
2022-09-15T11:10:28.892Z,17.40
2022-09-15T11:11:28.823Z,17.49
2022-09-15T11:12:29.563Z,17.54
2022-09-15T11:13:29.785Z,17.43
2022-09-15T11:14:28.788Z,17.45
2022-09-15T11:15:28.757Z,17.40
2022-09-15T11:16:28.882Z,17.42
2022-09-15T11:17:28.857Z,17.51
2022-09-15T11:18:28.737Z,17.47
2022-09-15T11:19:28.773Z,17.51
2022-09-15T11:20:28.792Z,17.54
2022-09-15T11:21:29.708Z,17.51
2022-09-15T11:22:28.783Z,17.60
2022-09-15T11:23:28.756Z,17.45
2022-09-15T11:24:28.694Z,17.51
2022-09-15T11:25:28.731Z,17.40
2022-09-15T11:26:28.712Z,17.46
2022-09-15T11:27:28.747Z,17.62
2022-09-15T11:28:28.666Z,17.62
2022-09-15T11:29:28.679Z,17.63
2022-09-15T11:30:28.676Z,17.79
2022-09-15T11:31:28.682Z,17.73
2022-09-15T11:32:28.677Z,17.65
2022-09-15T11:33:28.782Z,17.68
2022-09-15T11:34:28.636Z,17.71
2022-09-15T11:35:28.635Z,17.87
2022-09-15T11:36:28.613Z,17.81
2022-09-15T11:37:28.631Z,17.96
2022-09-15T11:38:28.624Z,17.79
2022-09-15T11:39:28.659Z,17.89
2022-09-15T11:40:28.652Z,17.84
2022-09-15T11:41:28.661Z,17.76
2022-09-15T11:42:28.577Z,17.62
2022-09-15T11:43:28.595Z,17.63
2022-09-15T11:44:28.556Z,17.65
2022-09-15T11:45:28.572Z,17.83
2022-09-15T11:46:28.624Z,18.04
2022-09-15T11:47:28.559Z,18.16
2022-09-15T11:48:28.562Z,18.14
2022-09-15T11:49:28.551Z,18.16
2022-09-15T11:50:28.551Z,18.17
2022-09-15T11:51:28.546Z,18.04
2022-09-15T11:52:28.526Z,17.94
2022-09-15T11:53:28.534Z,18.05
2022-09-15T11:54:31.345Z,18.04
2022-09-15T11:55:29.507Z,18.05
2022-09-15T11:56:28.493Z,18.05
2022-09-15T11:57:28.489Z,18.11
2022-09-15T11:58:28.498Z,18.21
2022-09-15T11:59:28.471Z,18.34
2022-09-15T12:00:28.491Z,18.62
2022-09-15T12:01:28.515Z,18.78
2022-09-15T12:02:28.616Z,18.90
2022-09-15T12:03:28.453Z,19.16
2022-09-15T12:04:28.483Z,19.35
2022-09-15T12:05:28.474Z,19.64
2022-09-15T12:06:28.444Z,19.70
2022-09-15T12:07:28.435Z,19.78
2022-09-15T12:08:28.436Z,19.86
2022-09-15T12:09:28.442Z,20.04
2022-09-15T12:10:28.425Z,19.97
2022-09-15T12:11:28.449Z,20.00
2022-09-15T12:12:30.734Z,20.00
2022-09-15T12:13:28.402Z,19.97
2022-09-15T12:14:28.395Z,19.64
2022-09-15T12:15:28.539Z,19.43
2022-09-15T12:16:28.407Z,19.23
2022-09-15T12:17:28.397Z,19.24
2022-09-15T12:18:38.969Z,19.01
2022-09-15T12:19:30.350Z,18.71
2022-09-15T12:20:28.339Z,18.53
2022-09-15T12:21:28.382Z,18.41
2022-09-15T12:22:28.457Z,18.31
2022-09-15T12:23:28.343Z,18.42
2022-09-15T12:24:28.317Z,18.47
2022-09-15T12:25:28.335Z,18.29
2022-09-15T12:26:28.394Z,18.20
2022-09-15T12:27:28.327Z,18.32
2022-09-15T12:28:28.429Z,18.36
2022-09-15T12:29:28.325Z,18.47
2022-09-15T12:30:28.280Z,18.56
2022-09-15T12:31:28.358Z,18.64
2022-09-15T12:32:28.261Z,18.44
2022-09-15T12:33:28.292Z,18.57
2022-09-15T12:34:28.284Z,18.32
2022-09-15T12:35:28.277Z,18.09
2022-09-15T12:36:28.290Z,18.02
2022-09-15T12:37:28.251Z,18.07
2022-09-15T12:38:28.246Z,18.17
2022-09-15T12:39:28.314Z,18.23
2022-09-15T12:40:28.342Z,18.25
2022-09-15T12:41:28.294Z,18.09
2022-09-15T12:42:28.247Z,18.04
2022-09-15T12:43:28.247Z,18.02
2022-09-15T12:44:28.201Z,18.01
2022-09-15T12:45:28.185Z,18.02
2022-09-15T12:46:28.366Z,18.01
2022-09-15T12:47:28.195Z,17.99
2022-09-15T12:48:28.188Z,17.98
2022-09-15T12:49:28.224Z,17.84
2022-09-15T12:50:28.214Z,17.86
2022-09-15T12:51:28.186Z,17.96
2022-09-15T12:52:28.182Z,17.86